MUCM/CMW METAR and TAF weather

Enter ICAO airport designator
Station Type Date Time Source
MUCM METAR 2019/04/19 10:50 UTC NOAA

MUCM 191050Z 08007KT 9000 FEW020 22/19 Q1015


Station Type Date Time Source
MUCM Decoded METAR 2019/04/19 10:50 UTC NOAA

Camaguey Aeropuerto, Cuba (MUCM) 21-25N 077-51W 118M
Apr 19, 2019 - 06:50 AM EDT / 2019.04.19 1050 UTC
Wind: from the E (080 degrees) at 8 MPH (7 KT):0
Visibility: 5 mile(s):0
Sky conditions: mostly clear
Temperature: 71 F (22 C)
Dew Point: 66 F (19 C)
Relative Humidity: 83%
Pressure (altimeter): 29.97 in. Hg (1015 hPa)
ob: MUCM 191050Z 08007KT 9000 FEW020 22/19 Q1015
cycle: 11

Station Type Date Time Source
MUCM TAF 2019/04/19 12:00 UTC NOAA

MUCM 191100Z 1912/2012 VRB03KT 9000 SCT020
BECMG 1915/1917 18010KT
BECMG 2002/2005 VRB03KT

Example: see airport list